createdAt,value
2024-02-02T00:02:00.244Z,95928.00
2024-02-02T00:04:28.300Z,95924.47
2024-02-02T00:06:56.867Z,95926.13
2024-02-02T00:09:25.167Z,95917.03
2024-02-02T00:11:53.636Z,95911.59
2024-02-02T00:14:21.684Z,95927.69
2024-02-02T00:16:50.073Z,95925.59
2024-02-02T00:19:20.003Z,95909.16
2024-02-02T00:21:48.443Z,95912.41
2024-02-02T00:24:16.406Z,95912.72
2024-02-02T00:26:44.909Z,95909.97
2024-02-02T00:29:13.294Z,95907.56
2024-02-02T00:31:42.328Z,95902.06
2024-02-02T00:34:10.462Z,95915.44
2024-02-02T00:36:38.816Z,95907.41
2024-02-02T00:39:06.907Z,95907.03
2024-02-02T00:41:35.260Z,95900.56
2024-02-02T00:44:04.911Z,95895.22
2024-02-02T00:46:34.080Z,95898.81
2024-02-02T00:49:03.841Z,95887.66
2024-02-02T00:51:32.812Z,95891.97
2024-02-02T00:54:01.026Z,95888.81
2024-02-02T00:56:29.578Z,95889.53
2024-02-02T00:58:57.519Z,95884.78
2024-02-02T01:01:26.310Z,95875.63
2024-02-02T01:03:54.247Z,95880.63
2024-02-02T01:06:22.855Z,95878.84
2024-02-02T01:08:50.901Z,95874.06
2024-02-02T01:11:20.646Z,95872.25
2024-02-02T01:13:48.741Z,95874.13
2024-02-02T01:16:17.012Z,95874.59
2024-02-02T01:18:45.079Z,95876.38
2024-02-02T01:21:13.434Z,95872.31
2024-02-02T01:23:41.364Z,95872.81
2024-02-02T01:26:09.656Z,95865.72
2024-02-02T01:28:37.832Z,95868.81
2024-02-02T01:31:06.142Z,95868.94
2024-02-02T01:33:34.201Z,95876.72
2024-02-02T01:36:04.035Z,95882.09
2024-02-02T01:38:32.135Z,95874.94
2024-02-02T01:41:00.877Z,95887.94
2024-02-02T01:43:29.127Z,95880.28
2024-02-02T01:45:57.625Z,95881.22
2024-02-02T01:48:27.172Z,95878.94
2024-02-02T01:50:55.716Z,95878.78
2024-02-02T01:53:24.178Z,95877.47
2024-02-02T01:55:52.718Z,95876.50
2024-02-02T01:58:21.336Z,95864.06
2024-02-02T02:00:49.944Z,95858.00
2024-02-02T02:03:18.643Z,95859.19
2024-02-02T02:05:47.093Z,95864.06
2024-02-02T02:08:15.257Z,95853.81
2024-02-02T02:10:46.606Z,95855.81
2024-02-02T02:13:15.249Z,95845.19
2024-02-02T02:15:43.753Z,95848.31
2024-02-02T02:18:11.899Z,95855.47
2024-02-02T02:20:53.916Z,95857.84
2024-02-02T02:23:21.988Z,95856.63
2024-02-02T02:25:50.587Z,95854.00
2024-02-02T02:28:18.766Z,95858.81
2024-02-02T02:30:47.698Z,95850.09
2024-02-02T02:33:16.023Z,95855.66
2024-02-02T02:35:44.928Z,95852.28
2024-02-02T02:38:12.928Z,95851.41
2024-02-02T02:40:41.205Z,95846.84
2024-02-02T02:43:09.208Z,95843.63
2024-02-02T02:45:37.697Z,95849.88
2024-02-02T02:48:06.307Z,95848.00
2024-02-02T02:50:34.683Z,95839.81
2024-02-02T02:53:02.736Z,95845.19
2024-02-02T02:55:31.280Z,95852.03
2024-02-02T02:57:59.584Z,95850.69
2024-02-02T03:00:29.808Z,95846.91
2024-02-02T03:02:57.924Z,95842.09
2024-02-02T03:05:31.296Z,95836.94
2024-02-02T03:07:59.389Z,95848.03
2024-02-02T03:10:27.894Z,95847.69
2024-02-02T03:12:56.339Z,95845.91
2024-02-02T03:15:25.380Z,95846.66
2024-02-02T03:17:53.676Z,95846.19
2024-02-02T03:20:24.021Z,95836.47
2024-02-02T03:22:52.108Z,95839.16
2024-02-02T03:25:20.489Z,95832.28
2024-02-02T03:27:48.619Z,95840.72
2024-02-02T03:30:17.181Z,95855.94
2024-02-02T03:32:46.038Z,95843.97
2024-02-02T03:35:14.813Z,95848.50
2024-02-02T03:37:42.893Z,95841.34
2024-02-02T03:40:12.445Z,95847.22
2024-02-02T03:42:40.441Z,95845.41
2024-02-02T03:45:09.182Z,95848.94
2024-02-02T03:47:37.659Z,95855.75
2024-02-02T03:50:06.287Z,95845.41
2024-02-02T03:52:34.352Z,95849.47
2024-02-02T03:55:02.907Z,95848.31
2024-02-02T03:57:33.674Z,95845.44
2024-02-02T04:00:02.456Z,95848.09
2024-02-02T04:02:40.979Z,95848.66
2024-02-02T04:05:09.736Z,95849.97
2024-02-02T04:07:37.593Z,95860.75
2024-02-02T04:10:07.010Z,95852.44
2024-02-02T04:12:35.109Z,95856.41
2024-02-02T04:15:03.968Z,95872.94
2024-02-02T04:17:33.890Z,95869.66
2024-02-02T04:20:02.401Z,95876.09
2024-02-02T04:22:31.585Z,95871.97
2024-02-02T04:25:00.075Z,95863.75
2024-02-02T04:27:28.347Z,95861.59
2024-02-02T04:29:56.803Z,95875.47
2024-02-02T04:32:24.804Z,95883.41
2024-02-02T04:34:53.167Z,95892.19
2024-02-02T04:37:21.324Z,95881.19
2024-02-02T04:39:49.975Z,95883.47
2024-02-02T04:42:18.133Z,95889.47
2024-02-02T04:44:46.480Z,95875.25
2024-02-02T04:47:14.525Z,95880.66
2024-02-02T04:49:42.950Z,95885.31
2024-02-02T04:52:11.058Z,95889.88
2024-02-02T04:54:39.557Z,95894.47
2024-02-02T04:57:07.511Z,95879.41
2024-02-02T04:59:35.768Z,95878.59
2024-02-02T05:02:06.620Z,95883.09
2024-02-02T05:04:35.954Z,95879.75
2024-02-02T05:07:03.991Z,95882.47
2024-02-02T05:09:32.359Z,95872.94
2024-02-02T05:12:00.359Z,95873.31
2024-02-02T05:14:28.716Z,95877.50
2024-02-02T05:16:57.473Z,95877.69
2024-02-02T05:19:26.366Z,95875.31
2024-02-02T05:21:54.681Z,95880.50
2024-02-02T05:24:36.965Z,95881.75
2024-02-02T05:27:12.412Z,95882.28
2024-02-02T05:29:41.234Z,95876.50
2024-02-02T05:32:09.239Z,95886.00
2024-02-02T05:34:37.719Z,95891.28
2024-02-02T05:37:05.786Z,95881.41
2024-02-02T05:39:36.676Z,95886.38
2024-02-02T05:42:05.304Z,95880.09
2024-02-02T05:44:33.565Z,95883.72
2024-02-02T05:47:03.970Z,95884.03
2024-02-02T05:49:32.439Z,95882.22
2024-02-02T05:52:04.153Z,95885.16
2024-02-02T05:54:33.327Z,95882.53
2024-02-02T05:57:01.421Z,95873.13
2024-02-02T05:59:29.970Z,95875.59
2024-02-02T06:01:57.947Z,95870.06
2024-02-02T06:04:26.607Z,95876.56
2024-02-02T06:06:54.997Z,95877.84
2024-02-02T06:09:25.638Z,95880.13
2024-02-02T06:11:53.847Z,95882.72
2024-02-02T06:14:21.732Z,95870.00
2024-02-02T06:16:50.642Z,95870.31
2024-02-02T06:19:18.748Z,95873.81
2024-02-02T06:21:47.098Z,95868.53
2024-02-02T06:24:15.215Z,95860.03
2024-02-02T06:26:43.562Z,95864.91
2024-02-02T06:29:11.503Z,95860.81
2024-02-02T06:31:39.905Z,95862.44
2024-02-02T06:34:07.966Z,95864.09
2024-02-02T06:36:36.609Z,95859.88
2024-02-02T06:39:04.650Z,95860.00
2024-02-02T06:41:33.413Z,95849.25
2024-02-02T06:44:01.460Z,95854.34
2024-02-02T06:46:29.740Z,95858.06
2024-02-02T06:48:57.993Z,95856.53
2024-02-02T06:51:26.415Z,95853.81
2024-02-02T06:53:57.110Z,95846.41
2024-02-02T06:56:37.479Z,95854.25
2024-02-02T06:59:07.013Z,95842.00
2024-02-02T07:01:36.437Z,95854.25
2024-02-02T07:04:08.595Z,95846.41
2024-02-02T07:06:37.301Z,95844.59
2024-02-02T07:09:20.685Z,95839.69
2024-02-02T07:12:10.747Z,95851.78
2024-02-02T07:14:44.857Z,95841.53
2024-02-02T07:17:36.339Z,95839.28
2024-02-02T07:20:11.213Z,95837.13
2024-02-02T07:22:44.888Z,95842.44
2024-02-02T07:25:14.989Z,95839.38
2024-02-02T07:27:51.297Z,95843.34
2024-02-02T07:30:37.977Z,95833.50
2024-02-02T07:33:36.945Z,95827.28
2024-02-02T07:36:06.456Z,95825.41
2024-02-02T07:38:48.221Z,95828.56
2024-02-02T07:41:18.975Z,95819.44
2024-02-02T07:43:48.898Z,95823.91
2024-02-02T07:46:17.482Z,95815.84
2024-02-02T07:48:48.661Z,95822.38
2024-02-02T07:51:20.108Z,95819.59
2024-02-02T07:53:48.530Z,95819.44
2024-02-02T07:56:19.393Z,95810.41
2024-02-02T07:58:47.839Z,95809.19
2024-02-02T08:01:16.611Z,95802.03
2024-02-02T08:03:45.711Z,95793.75
2024-02-02T08:06:15.093Z,95791.44
2024-02-02T08:08:43.502Z,95784.06
2024-02-02T08:11:11.361Z,95780.53
2024-02-02T08:13:39.820Z,95771.63
2024-02-02T08:16:07.968Z,95771.44
2024-02-02T08:18:37.808Z,95767.69
2024-02-02T08:21:06.477Z,95763.38
2024-02-02T08:23:35.724Z,95771.78
2024-02-02T08:26:03.750Z,95757.09
2024-02-02T08:28:41.554Z,95760.19
2024-02-02T08:31:16.911Z,95753.75
2024-02-02T08:33:45.308Z,95753.97
2024-02-02T08:36:13.744Z,95740.94
2024-02-02T08:38:42.247Z,95751.13
2024-02-02T08:41:11.511Z,95734.06
2024-02-02T08:43:41.427Z,95729.66
2024-02-02T08:46:12.207Z,95723.34
2024-02-02T08:48:47.205Z,95718.69
2024-02-02T08:51:25.163Z,95719.03
2024-02-02T08:54:00.206Z,95709.50
2024-02-02T08:56:28.685Z,95712.25
2024-02-02T08:58:58.523Z,95704.63
2024-02-02T09:01:43.935Z,95697.81
2024-02-02T09:04:53.284Z,95696.25
2024-02-02T09:07:21.470Z,95703.41
2024-02-02T09:09:50.016Z,95699.63
2024-02-02T09:12:19.550Z,95700.47
2024-02-02T09:14:48.128Z,95699.88
2024-02-02T09:17:16.078Z,95696.78
2024-02-02T09:19:47.247Z,95688.78
2024-02-02T09:22:19.328Z,95673.19
2024-02-02T09:24:51.469Z,95663.75
2024-02-02T09:27:33.768Z,95669.31
2024-02-02T09:30:06.242Z,95659.09
2024-02-02T09:32:34.450Z,95649.50
2024-02-02T09:35:04.417Z,95660.88
2024-02-02T09:37:51.047Z,95648.94
2024-02-02T09:40:34.577Z,95642.19
2024-02-02T09:43:59.033Z,95638.78
2024-02-02T09:47:09.070Z,95635.00
2024-02-02T09:49:49.088Z,95635.66
2024-02-02T09:52:33.259Z,95630.34
2024-02-02T09:55:44.793Z,95631.69
2024-02-02T09:58:33.942Z,95622.53
2024-02-02T10:01:24.632Z,95616.00
2024-02-02T10:04:27.511Z,95622.72
2024-02-02T10:07:14.225Z,95614.00
2024-02-02T10:10:12.042Z,95603.59
2024-02-02T10:12:58.149Z,95599.84
2024-02-02T10:15:43.117Z,95603.22
2024-02-02T10:18:30.831Z,95588.16
2024-02-02T10:21:12.561Z,95602.97
2024-02-02T10:24:15.357Z,95584.88
2024-02-02T10:27:02.394Z,95581.81
2024-02-02T10:30:17.586Z,95578.31
2024-02-02T10:33:14.930Z,95579.56
2024-02-02T10:35:55.573Z,95565.44
2024-02-02T10:38:51.496Z,95562.31
2024-02-02T10:41:40.873Z,95567.78
2024-02-02T10:44:29.189Z,95561.44
2024-02-02T10:47:03.792Z,95553.41
2024-02-02T10:49:49.587Z,95553.97
2024-02-02T10:52:29.742Z,95561.28
2024-02-02T10:55:08.226Z,95559.41
2024-02-02T10:57:54.084Z,95555.25
2024-02-02T11:00:26.801Z,95536.41
2024-02-02T11:03:33.148Z,95542.38
2024-02-02T11:06:15.677Z,95533.94
2024-02-02T11:08:55.642Z,95535.94
2024-02-02T11:11:28.998Z,95527.75
2024-02-02T11:14:34.735Z,95523.69
2024-02-02T11:17:50.604Z,95524.00
2024-02-02T11:21:02.167Z,95517.25
2024-02-02T11:23:49.393Z,95513.31
2024-02-02T11:26:26.579Z,95517.84
2024-02-02T11:29:17.167Z,95523.38
2024-02-02T11:31:48.638Z,95519.69
2024-02-02T11:34:36.262Z,95515.91
2024-02-02T11:37:32.809Z,95520.03
2024-02-02T11:40:07.853Z,95516.59
2024-02-02T11:42:40.987Z,95509.72
2024-02-02T11:45:13.695Z,95518.34
2024-02-02T11:47:51.567Z,95514.69
2024-02-02T11:50:24.319Z,95503.97
2024-02-02T11:53:05.433Z,95509.47
2024-02-02T11:56:04.916Z,95516.66
2024-02-02T11:58:38.144Z,95511.00
2024-02-02T12:01:25.040Z,95505.38
2024-02-02T12:03:59.304Z,95496.59
2024-02-02T12:06:34.993Z,95512.47
2024-02-02T12:09:26.975Z,95511.66
2024-02-02T12:11:57.650Z,95497.31
2024-02-02T12:14:34.329Z,95496.47
2024-02-02T12:17:03.655Z,95493.88
2024-02-02T12:19:33.024Z,95496.13
2024-02-02T12:22:01.706Z,95495.88
2024-02-02T12:24:30.157Z,95488.19
2024-02-02T12:26:59.705Z,95481.19
2024-02-02T12:29:27.856Z,95488.03
2024-02-02T12:31:56.714Z,95489.97
2024-02-02T12:34:25.961Z,95486.84
2024-02-02T12:36:54.524Z,95494.59
2024-02-02T12:39:23.201Z,95499.88
2024-02-02T12:41:52.693Z,95487.22
2024-02-02T12:44:21.599Z,95486.28
2024-02-02T12:46:50.375Z,95481.78
2024-02-02T12:49:19.765Z,95496.50
2024-02-02T12:51:50.006Z,95489.06
2024-02-02T12:54:18.129Z,95498.34
2024-02-02T12:56:46.509Z,95495.56
2024-02-02T12:59:19.688Z,95496.41
2024-02-02T13:01:49.507Z,95496.72
2024-02-02T13:04:18.709Z,95496.41
2024-02-02T13:06:47.381Z,95490.03
2024-02-02T13:09:25.613Z,95487.66
2024-02-02T13:11:59.444Z,95500.59
2024-02-02T13:14:37.419Z,95503.34
2024-02-02T13:17:07.512Z,95495.84
2024-02-02T13:19:47.192Z,95500.34
2024-02-02T13:22:28.160Z,95508.84
2024-02-02T13:25:00.188Z,95504.84
2024-02-02T13:27:32.380Z,95496.78
2024-02-02T13:30:04.179Z,95496.19
2024-02-02T13:32:53.822Z,95500.81
2024-02-02T13:35:27.272Z,95502.50
2024-02-02T13:37:56.598Z,95509.97
2024-02-02T13:40:32.013Z,95512.13
2024-02-02T13:43:01.300Z,95499.72
2024-02-02T13:45:31.861Z,95515.06
2024-02-02T13:48:04.925Z,95510.38
2024-02-02T13:50:52.058Z,95508.56
2024-02-02T13:53:25.059Z,95508.22
2024-02-02T13:55:53.547Z,95505.28
2024-02-02T13:58:23.396Z,95508.00
2024-02-02T14:00:51.461Z,95506.13
2024-02-02T14:03:22.862Z,95508.56
2024-02-02T14:05:51.259Z,95506.25
2024-02-02T14:08:20.562Z,95514.03
2024-02-02T14:10:51.836Z,95512.75
2024-02-02T14:13:21.833Z,95516.94
2024-02-02T14:15:53.870Z,95512.94
2024-02-02T14:18:24.747Z,95515.44
2024-02-02T14:20:53.004Z,95524.69
2024-02-02T14:23:23.202Z,95519.53
2024-02-02T14:25:51.627Z,95524.78
2024-02-02T14:28:21.033Z,95528.47
2024-02-02T14:30:49.338Z,95514.59
2024-02-02T14:33:25.396Z,95510.38
2024-02-02T14:35:58.093Z,95501.16
2024-02-02T14:38:26.711Z,95533.72
2024-02-02T14:40:55.458Z,95529.94
2024-02-02T14:43:23.904Z,95529.94
2024-02-02T14:45:51.905Z,95526.72
2024-02-02T14:48:20.898Z,95529.78
2024-02-02T14:50:49.080Z,95532.81
2024-02-02T14:53:17.550Z,95525.44
2024-02-02T14:55:45.886Z,95533.13
2024-02-02T14:58:14.964Z,95531.72
2024-02-02T15:00:46.558Z,95535.34
2024-02-02T15:03:15.520Z,95542.13
2024-02-02T15:05:44.276Z,95546.09
2024-02-02T15:08:13.593Z,95554.69
2024-02-02T15:10:42.456Z,95549.91
2024-02-02T15:13:12.005Z,95548.09
2024-02-02T15:15:40.162Z,95558.28
2024-02-02T15:18:09.511Z,95552.31
2024-02-02T15:20:39.787Z,95553.84
2024-02-02T15:23:08.490Z,95559.69
2024-02-02T15:25:36.564Z,95564.91
2024-02-02T15:28:05.641Z,95571.00
2024-02-02T15:30:33.668Z,95562.00
2024-02-02T15:33:02.337Z,95573.06
2024-02-02T15:35:30.384Z,95571.16
2024-02-02T15:37:58.849Z,95566.28
2024-02-02T15:40:26.810Z,95577.09
2024-02-02T15:42:56.492Z,95584.97
2024-02-02T15:45:24.672Z,95575.53
2024-02-02T15:47:53.313Z,95577.00
2024-02-02T15:50:21.441Z,95581.75
2024-02-02T15:52:49.897Z,95579.28
2024-02-02T15:55:18.541Z,95576.50
2024-02-02T15:57:52.634Z,95588.88
2024-02-02T16:00:21.317Z,95586.78
2024-02-02T16:02:50.174Z,95594.41
2024-02-02T16:05:19.445Z,95579.03
2024-02-02T16:07:47.816Z,95594.19
2024-02-02T16:10:17.782Z,95586.78
2024-02-02T16:12:46.845Z,95590.31
2024-02-02T16:15:15.079Z,95585.09
2024-02-02T16:17:43.751Z,95585.56
2024-02-02T16:20:12.671Z,95595.56
2024-02-02T16:22:42.955Z,95600.97
2024-02-02T16:25:13.838Z,95593.09
2024-02-02T16:27:43.007Z,95595.13
2024-02-02T16:30:13.946Z,95603.50
2024-02-02T16:32:42.423Z,95594.22
2024-02-02T16:35:10.677Z,95597.13
2024-02-02T16:37:40.956Z,95582.41
2024-02-02T16:40:10.936Z,95598.00
2024-02-02T16:42:44.442Z,95595.22
2024-02-02T16:45:14.570Z,95602.75
2024-02-02T16:47:43.140Z,95604.28
2024-02-02T16:50:11.296Z,95595.56
2024-02-02T16:52:40.592Z,95597.44
2024-02-02T16:55:08.783Z,95602.66
2024-02-02T16:57:39.989Z,95608.69
2024-02-02T17:00:09.964Z,95605.06
2024-02-02T17:02:40.065Z,95597.75
2024-02-02T17:05:08.356Z,95602.97
2024-02-02T17:07:37.031Z,95609.72
2024-02-02T17:10:06.007Z,95601.84
2024-02-02T17:12:34.448Z,95595.34
2024-02-02T17:15:05.022Z,95603.75
2024-02-02T17:17:34.418Z,95601.44
2024-02-02T17:20:06.878Z,95607.41
2024-02-02T17:22:44.114Z,95607.41
2024-02-02T17:25:13.281Z,95606.06
2024-02-02T17:27:42.858Z,95609.47
2024-02-02T17:30:15.802Z,95613.69
2024-02-02T17:32:44.654Z,95608.06
2024-02-02T17:35:12.823Z,95618.22
2024-02-02T17:37:44.447Z,95618.97
2024-02-02T17:40:14.354Z,95618.56
2024-02-02T17:42:43.742Z,95626.47
2024-02-02T17:45:11.879Z,95624.69
2024-02-02T17:47:41.385Z,95628.56
2024-02-02T17:50:10.790Z,95637.50
2024-02-02T17:52:39.462Z,95636.50
2024-02-02T17:55:07.885Z,95637.38
2024-02-02T17:57:36.693Z,95637.78
2024-02-02T18:00:06.929Z,95634.00
2024-02-02T18:02:40.635Z,95632.97
2024-02-02T18:05:09.731Z,95639.09
2024-02-02T18:07:47.016Z,95636.19
2024-02-02T18:10:16.646Z,95635.38
2024-02-02T18:12:48.802Z,95635.72
2024-02-02T18:15:20.173Z,95644.88
2024-02-02T18:17:48.655Z,95632.47
2024-02-02T18:20:16.675Z,95630.53
2024-02-02T18:22:45.673Z,95636.00
2024-02-02T18:25:13.634Z,95641.44
2024-02-02T18:27:42.018Z,95636.25
2024-02-02T18:30:10.655Z,95648.13
2024-02-02T18:32:39.471Z,95645.22
2024-02-02T18:35:08.762Z,95653.50
2024-02-02T18:37:37.773Z,95639.25
2024-02-02T18:40:06.242Z,95648.75
2024-02-02T18:42:34.647Z,95651.38
2024-02-02T18:45:02.925Z,95653.41
2024-02-02T18:47:32.807Z,95648.06
2024-02-02T18:50:00.918Z,95647.75
2024-02-02T18:52:31.351Z,95649.78
2024-02-02T18:54:59.422Z,95653.41
2024-02-02T18:57:27.758Z,95643.59
2024-02-02T18:59:55.835Z,95653.00
2024-02-02T19:02:24.096Z,95649.81
2024-02-02T19:04:54.248Z,95644.50
2024-02-02T19:07:22.806Z,95651.47
2024-02-02T19:09:50.887Z,95653.34
2024-02-02T19:12:19.830Z,95657.00
2024-02-02T19:14:47.895Z,95655.69
2024-02-02T19:17:18.692Z,95665.78
2024-02-02T19:19:47.146Z,95648.34
2024-02-02T19:22:15.548Z,95659.34
2024-02-02T19:24:47.444Z,95647.75
2024-02-02T19:27:15.961Z,95653.09
2024-02-02T19:29:43.954Z,95648.16
2024-02-02T19:32:14.514Z,95650.00
2024-02-02T19:34:42.925Z,95649.88
2024-02-02T19:37:12.056Z,95651.59
2024-02-02T19:39:41.226Z,95646.75
2024-02-02T19:42:09.536Z,95651.41
2024-02-02T19:44:37.843Z,95643.41
2024-02-02T19:47:06.595Z,95639.50
2024-02-02T19:49:35.241Z,95643.69
2024-02-02T19:52:03.859Z,95661.59
2024-02-02T19:54:34.309Z,95645.38
2024-02-02T19:57:06.464Z,95657.91
2024-02-02T19:59:34.542Z,95654.44
2024-02-02T20:02:05.801Z,95660.75
2024-02-02T20:04:34.214Z,95659.63
2024-02-02T20:07:02.736Z,95653.31
2024-02-02T20:09:31.691Z,95668.25
2024-02-02T20:12:00.116Z,95661.28
2024-02-02T20:14:28.063Z,95659.03
2024-02-02T20:16:56.316Z,95659.28
2024-02-02T20:19:26.557Z,95654.00
2024-02-02T20:21:55.060Z,95652.22
2024-02-02T20:24:23.094Z,95654.34
2024-02-02T20:26:51.559Z,95661.59
2024-02-02T20:29:21.927Z,95646.59
2024-02-02T20:31:51.879Z,95662.84
2024-02-02T20:34:19.889Z,95650.31
2024-02-02T20:36:48.503Z,95664.84
2024-02-02T20:39:16.468Z,95665.72
2024-02-02T20:41:45.439Z,95655.75
2024-02-02T20:44:13.397Z,95642.78
2024-02-02T20:46:44.776Z,95656.88
2024-02-02T20:49:16.027Z,95664.28
2024-02-02T20:51:44.957Z,95656.94
2024-02-02T20:54:14.258Z,95650.47
2024-02-02T20:56:44.089Z,95652.31
2024-02-02T20:59:12.093Z,95666.72
2024-02-02T21:01:40.668Z,95647.28
2024-02-02T21:04:08.884Z,95646.50
2024-02-02T21:06:43.711Z,95650.66
2024-02-02T21:09:12.115Z,95656.66
2024-02-02T21:11:40.437Z,95649.13
2024-02-02T21:14:09.051Z,95648.28
2024-02-02T21:16:37.804Z,95661.09
2024-02-02T21:19:07.582Z,95659.75
2024-02-02T21:21:38.189Z,95655.06
2024-02-02T21:24:06.700Z,95661.19
2024-02-02T21:26:35.222Z,95654.88
2024-02-02T21:29:03.470Z,95663.66
2024-02-02T21:31:31.798Z,95671.22
2024-02-02T21:34:00.081Z,95679.75
2024-02-02T21:36:29.132Z,95679.41
2024-02-02T21:38:58.773Z,95676.84
2024-02-02T21:41:27.440Z,95669.44
2024-02-02T21:43:55.526Z,95670.28
2024-02-02T21:46:24.007Z,95649.19
2024-02-02T21:48:52.219Z,95659.44
2024-02-02T21:51:20.965Z,95668.31
2024-02-02T21:53:49.191Z,95662.34
2024-02-02T21:56:17.714Z,95665.97
2024-02-02T21:58:46.392Z,95678.75
2024-02-02T22:01:15.789Z,95669.78
2024-02-02T22:03:44.213Z,95666.09
2024-02-02T22:06:14.318Z,95665.56
2024-02-02T22:08:42.332Z,95670.09
2024-02-02T22:11:11.526Z,95662.22
2024-02-02T22:13:39.583Z,95662.81
2024-02-02T22:16:12.903Z,95671.59
2024-02-02T22:18:41.217Z,95671.81
2024-02-02T22:21:10.313Z,95664.97
2024-02-02T22:23:38.923Z,95663.19
2024-02-02T22:26:07.378Z,95655.38
2024-02-02T22:28:36.844Z,95662.84
2024-02-02T22:31:06.339Z,95651.59
2024-02-02T22:33:34.719Z,95659.44
2024-02-02T22:36:03.306Z,95656.00
2024-02-02T22:38:31.704Z,95652.31
2024-02-02T22:41:07.396Z,95646.69
2024-02-02T22:43:42.867Z,95652.63
2024-02-02T22:46:11.368Z,95658.75
2024-02-02T22:48:39.731Z,95668.56
2024-02-02T22:51:08.401Z,95663.94
2024-02-02T22:53:36.749Z,95658.50
2024-02-02T22:56:05.897Z,95662.63
2024-02-02T22:58:41.511Z,95667.63
2024-02-02T23:01:10.104Z,95666.41
2024-02-02T23:03:38.279Z,95668.47
2024-02-02T23:06:07.407Z,95663.66
2024-02-02T23:08:35.588Z,95669.00
2024-02-02T23:11:04.060Z,95671.56
2024-02-02T23:13:32.045Z,95675.44
2024-02-02T23:16:00.728Z,95675.34
2024-02-02T23:18:31.015Z,95679.41
2024-02-02T23:21:01.047Z,95667.44
2024-02-02T23:23:30.376Z,95672.69
2024-02-02T23:25:58.624Z,95670.72
2024-02-02T23:28:29.515Z,95676.34
2024-02-02T23:31:01.703Z,95682.16
2024-02-02T23:33:30.434Z,95674.69
2024-02-02T23:35:59.300Z,95678.28
2024-02-02T23:38:27.358Z,95682.22
2024-02-02T23:41:21.070Z,95680.22
2024-02-02T23:43:49.196Z,95677.34
2024-02-02T23:46:17.616Z,95677.88
2024-02-02T23:48:46.710Z,95672.38
2024-02-02T23:51:15.317Z,95668.56
2024-02-02T23:53:43.541Z,95663.22
2024-02-02T23:56:11.946Z,95672.19
2024-02-02T23:58:40.186Z,95667.53
